createdAt,value
2022-11-08T04:42:46.578Z,101024.22
2022-11-08T04:45:49.593Z,101021.59
2022-11-08T04:48:54.523Z,101015.38
2022-11-08T04:51:57.331Z,101018.84
2022-11-08T04:54:59.811Z,101020.44
2022-11-08T04:58:02.543Z,101012.63
2022-11-08T05:01:07.627Z,101013.41
2022-11-08T05:04:10.451Z,101014.28
2022-11-08T05:07:12.928Z,101017.69
2022-11-08T05:10:16.089Z,101016.69
2022-11-08T05:13:19.573Z,101016.47
2022-11-08T05:16:33.382Z,101024.97
2022-11-08T05:19:54.699Z,101016.13
2022-11-08T05:23:20.230Z,101013.50
2022-11-08T05:26:23.795Z,101022.75
2022-11-08T05:29:26.536Z,101027.00
2022-11-08T05:32:28.935Z,101026.03
2022-11-08T05:35:33.976Z,101031.28
2022-11-08T05:38:37.290Z,101034.59
2022-11-08T05:41:40.134Z,101036.28
2022-11-08T05:44:42.665Z,101039.78
2022-11-08T05:47:46.176Z,101045.03
2022-11-08T05:50:49.975Z,101049.50
2022-11-08T05:53:54.815Z,101054.75
2022-11-08T05:56:57.367Z,101058.34
2022-11-08T06:00:00.284Z,101053.84
2022-11-08T06:03:04.511Z,101054.59
2022-11-08T06:06:10.573Z,101052.03
2022-11-08T06:09:13.249Z,101045.91
2022-11-08T06:12:16.138Z,101050.28
2022-11-08T06:15:18.743Z,101050.97
2022-11-08T06:18:21.585Z,101056.22
2022-11-08T06:21:24.205Z,101060.44
2022-11-08T06:24:27.163Z,101058.75
2022-11-08T06:27:30.257Z,101059.66
2022-11-08T06:30:33.550Z,101065.66
2022-11-08T06:33:36.128Z,101072.44
2022-11-08T06:36:38.910Z,101071.56
2022-11-08T06:39:42.654Z,101070.66
2022-11-08T06:42:45.529Z,101070.59
2022-11-08T06:45:48.122Z,101081.69
2022-11-08T06:48:51.121Z,101077.94
2022-11-08T06:51:54.318Z,101083.12
2022-11-08T06:54:57.747Z,101082.06
2022-11-08T06:58:00.991Z,101081.91
2022-11-08T07:01:06.203Z,101084.47
2022-11-08T07:04:09.080Z,101082.97
2022-11-08T07:07:11.833Z,101090.03
2022-11-08T07:10:14.482Z,101090.78
2022-11-08T07:13:17.754Z,101097.53
2022-11-08T07:16:20.661Z,101094.81
2022-11-08T07:19:23.555Z,101085.63
2022-11-08T07:22:26.163Z,101090.87
2022-11-08T07:25:30.636Z,101089.69
2022-11-08T07:28:33.219Z,101089.47
2022-11-08T07:31:36.115Z,101089.69
2022-11-08T07:34:38.570Z,101087.00
2022-11-08T07:37:41.421Z,101092.94
2022-11-08T07:40:44.933Z,101098.88
2022-11-08T07:43:49.207Z,101093.97
2022-11-08T07:46:51.924Z,101095.44
2022-11-08T07:49:54.766Z,101105.50
2022-11-08T07:52:58.797Z,101107.09
2022-11-08T07:56:02.280Z,101105.31
2022-11-08T07:59:04.855Z,101109.13
2022-11-08T08:02:09.393Z,101108.63
2022-11-08T08:05:12.369Z,101096.12
2022-11-08T08:08:14.972Z,101102.66
2022-11-08T08:11:20.081Z,101105.53
2022-11-08T08:14:22.682Z,101106.72
2022-11-08T08:17:27.595Z,101104.34
2022-11-08T08:20:30.738Z,101107.91
2022-11-08T08:23:33.516Z,101104.53
2022-11-08T08:26:36.177Z,101109.59
2022-11-08T08:29:39.063Z,101107.63
2022-11-08T08:32:41.864Z,101103.75
2022-11-08T08:35:44.635Z,101097.13
2022-11-08T08:38:47.153Z,101107.69
2022-11-08T08:41:49.977Z,101101.59
2022-11-08T08:44:52.537Z,101107.16
2022-11-08T08:47:59.242Z,101109.53
2022-11-08T08:51:01.855Z,101115.66
2022-11-08T08:54:04.796Z,101112.09
2022-11-08T08:57:07.296Z,101125.69
2022-11-08T09:03:33.998Z,101130.16
2022-11-08T09:06:37.391Z,101135.19
2022-11-08T09:09:40.027Z,101134.94
2022-11-08T09:12:42.709Z,101138.56
2022-11-08T09:15:45.637Z,101134.81
2022-11-08T09:18:48.703Z,101144.25
2022-11-08T09:21:51.984Z,101144.44
2022-11-08T09:24:54.718Z,101144.44
2022-11-08T09:27:57.274Z,101154.16
2022-11-08T09:31:04.785Z,101149.56
2022-11-08T09:34:07.223Z,101152.47
2022-11-08T09:37:10.000Z,101151.03
2022-11-08T09:40:40.750Z,101144.31
2022-11-08T09:43:52.933Z,101143.34
2022-11-08T09:47:02.447Z,101142.19
2022-11-08T09:50:20.516Z,101125.69
2022-11-08T09:53:47.863Z,101132.59
2022-11-08T09:56:53.817Z,101131.91
2022-11-08T10:00:05.013Z,101137.81
2022-11-08T10:03:16.608Z,101131.09
2022-11-08T10:06:48.480Z,101132.75
2022-11-08T10:10:08.851Z,101127.84
2022-11-08T10:13:38.071Z,101133.56
2022-11-08T10:17:05.349Z,101125.59
2022-11-08T10:20:17.153Z,101117.69
2022-11-08T10:23:29.016Z,101121.91
2022-11-08T10:26:42.608Z,101115.41
2022-11-08T10:29:46.408Z,101116.34
2022-11-08T10:32:55.808Z,101120.59
2022-11-08T10:36:08.030Z,101110.31
2022-11-08T10:39:26.116Z,101113.41
2022-11-08T10:42:37.476Z,101099.66
2022-11-08T10:45:40.527Z,101098.69
2022-11-08T10:48:43.040Z,101101.06
2022-11-08T10:51:47.624Z,101102.47
2022-11-08T10:54:53.394Z,101093.00
2022-11-08T10:57:56.124Z,101095.31
2022-11-08T11:01:35.819Z,101089.19
2022-11-08T11:04:38.741Z,101091.88
2022-11-08T11:07:44.459Z,101077.81
2022-11-08T11:10:49.209Z,101082.19
2022-11-08T11:14:22.165Z,101083.75
2022-11-08T11:17:35.504Z,101079.38
2022-11-08T11:20:44.201Z,101078.19
2022-11-08T11:23:55.774Z,101075.06
2022-11-08T11:27:34.676Z,101074.56
2022-11-08T11:30:37.656Z,101068.59
2022-11-08T11:33:46.365Z,101070.84
2022-11-08T11:37:19.404Z,101060.97
2022-11-08T11:40:44.099Z,101055.50
2022-11-08T11:44:19.002Z,101064.03
2022-11-08T11:47:30.651Z,101058.44
2022-11-08T11:50:38.563Z,101061.06
2022-11-08T11:53:47.538Z,101059.47
2022-11-08T11:57:14.411Z,101044.53
2022-11-08T12:00:17.558Z,101050.47
2022-11-08T12:03:38.393Z,101040.37
2022-11-08T12:07:10.061Z,101035.22
2022-11-08T12:10:16.268Z,101037.09
2022-11-08T12:13:38.186Z,101029.06
2022-11-08T12:16:47.811Z,101021.22
2022-11-08T12:20:26.580Z,101011.72
2022-11-08T12:23:45.821Z,101002.03
2022-11-08T12:27:00.415Z,101009.44
2022-11-08T12:30:11.750Z,101002.56
2022-11-08T12:33:21.518Z,101001.06
2022-11-08T12:36:27.253Z,100996.31
2022-11-08T12:39:41.018Z,100987.53
2022-11-08T12:42:55.889Z,100986.66
2022-11-08T12:45:58.509Z,100981.47
2022-11-08T12:49:20.106Z,100985.63
2022-11-08T12:52:44.484Z,100988.00
2022-11-08T12:55:48.644Z,100992.25
2022-11-08T12:58:53.738Z,100983.97
2022-11-08T13:01:57.116Z,100983.50
2022-11-08T13:05:13.157Z,100985.72
2022-11-08T13:08:24.624Z,100986.84
2022-11-08T13:11:57.908Z,100982.22
2022-11-08T13:15:01.481Z,100976.59
2022-11-08T13:18:07.001Z,100975.94
2022-11-08T13:21:28.194Z,100970.56
2022-11-08T13:24:48.801Z,100965.56
2022-11-08T13:27:51.749Z,100962.47
2022-11-08T13:31:01.919Z,100955.47
2022-11-08T13:34:13.916Z,100957.16
2022-11-08T13:37:37.211Z,100950.44
2022-11-08T13:40:46.155Z,100949.81
2022-11-08T13:43:50.473Z,100960.69
2022-11-08T13:46:53.287Z,100962.50
2022-11-08T13:50:38.527Z,100956.47
2022-11-08T13:53:54.480Z,100959.31
2022-11-08T13:57:00.943Z,100972.03
2022-11-08T14:00:08.940Z,100966.88
2022-11-08T14:03:32.928Z,100957.75
2022-11-08T14:06:39.088Z,100968.09
2022-11-08T14:09:56.535Z,100963.38
2022-11-08T14:13:11.438Z,100966.69
2022-11-08T14:16:23.254Z,100965.41
2022-11-08T14:19:32.947Z,100973.25
2022-11-08T14:22:35.580Z,100966.03
2022-11-08T14:25:40.418Z,100964.69
2022-11-08T14:28:45.110Z,100961.66
2022-11-08T14:31:48.576Z,100959.91
2022-11-08T14:34:50.952Z,100961.78
2022-11-08T14:37:53.944Z,100961.22
2022-11-08T14:40:59.987Z,100959.56
2022-11-08T14:44:04.120Z,100960.16
2022-11-08T14:47:06.764Z,100961.03
2022-11-08T14:50:22.012Z,100960.50
2022-11-08T14:53:27.833Z,100963.50
2022-11-08T14:56:38.522Z,100959.81
2022-11-08T14:59:41.439Z,100962.25
2022-11-08T15:02:50.776Z,100968.72
2022-11-08T15:05:59.525Z,100964.59
2022-11-08T15:09:04.996Z,100963.59
2022-11-08T15:12:15.177Z,100969.72
2022-11-08T15:15:26.913Z,100965.34
2022-11-08T15:18:33.674Z,100966.94
2022-11-08T15:21:48.438Z,100980.28
2022-11-08T15:25:01.953Z,100976.59
2022-11-08T15:28:20.192Z,100977.28
2022-11-08T15:31:28.166Z,100984.16
2022-11-08T15:34:37.461Z,100983.16
2022-11-08T15:37:42.676Z,100984.81
2022-11-08T15:40:51.554Z,100982.97
2022-11-08T15:44:16.792Z,100985.09
2022-11-08T15:47:37.095Z,100987.09
2022-11-08T15:50:42.599Z,100994.16
2022-11-08T15:53:45.682Z,100987.19
2022-11-08T15:56:51.147Z,100995.59
2022-11-08T15:59:54.363Z,101000.16
2022-11-08T16:02:57.699Z,101004.94
2022-11-08T16:06:01.024Z,100998.91
2022-11-08T16:09:04.376Z,100997.28
2022-11-08T16:12:14.367Z,100994.03
2022-11-08T16:15:21.874Z,101000.06
2022-11-08T16:18:25.562Z,101000.25
2022-11-08T16:21:28.393Z,100996.28
2022-11-08T16:24:31.389Z,100991.97
2022-11-08T16:27:34.978Z,100994.34
2022-11-08T16:30:38.372Z,100995.19
